»·PEaware :: N7226S KBUR-KLAS

N7226S :: KBUR-KLAS

FLIGHT INFORMATION

Flight Status: Arrived
Operator: Privately registered:
United States
More flights under this callsign
Pilot: Anonymous 34673 (34673)
Aircraft: PIPER PA-28R-201 ARROW
(P28R)
More flights by this aircraft type
Origin: KBUR Bob Hope-Burbank
United States
Destination: KLAS Harry Reid Intl
United States
More flights between these airports :: More routes between these airports
Route: VNY3 DAG CRESO4
File this flight plan on PilotEdge
Remarks:
Altitude:
(Current/Filed)
9,000ft
Speed:
(Current/Filed)
130kts
Departed: 03-Jan-22 02:19 PM
Arrived: 03-Jan-22 04:01 PM
Distance/Time
Traveled:
193nm/1:42
Distance/Time
To Go:
Arrived

Flight Plot

Page will automatically refresh every two minutes.

Flight plan parsing failed; only flown route is shown


Map Options




Map Legend


Flown Route
Filed Route
Departure Airport
Arrival Airport
Navaid (VOR, NDB)
Fix

Horizontal Profiles

Position Reports

Time Latitude Longitude Heading Altitude Ground
Speed
03-Jan-22 14:02 34.202506 -118.360164 270 701ft 0kts
03-Jan-22 14:03 34.202506 -118.360164 270 701ft 0kts
03-Jan-22 14:04 34.202506 -118.360164 270 701ft 0kts
03-Jan-22 14:05 34.202506 -118.360164 270 701ft 0kts
03-Jan-22 14:06 34.202506 -118.360164 270 701ft 0kts
03-Jan-22 14:07 34.202506 -118.360164 270 701ft 0kts
03-Jan-22 14:08 34.202506 -118.360164 270 701ft 0kts
03-Jan-22 14:09 34.202506 -118.360164 270 701ft 0kts
03-Jan-22 14:10 34.202506 -118.360164 270 701ft 0kts
03-Jan-22 14:11 34.202529 -118.360263 284 701ft 0kts
03-Jan-22 14:12 34.202513 -118.360185 284 701ft 2kts
03-Jan-22 14:13 34.202461 -118.360227 185 701ft 0kts
03-Jan-22 14:14 34.202478 -118.360059 75 701ft 9kts
03-Jan-22 14:15 34.205596 -118.359738 348 701ft 17kts
03-Jan-22 14:16 34.209634 -118.360843 346 701ft 11kts
03-Jan-22 14:17 34.211830 -118.361397 26 701ft 0kts
03-Jan-22 14:18 34.207986 -118.359309 167 700ft 70kts
03-Jan-22 14:19 34.186325 -118.363025 224 1488ft 87kts
03-Jan-22 14:20 34.167179 -118.385629 224 2284ft 96kts
03-Jan-22 14:21 34.147356 -118.408938 224 3004ft 102kts
03-Jan-22 14:22 34.127914 -118.434756 264 3587ft 110kts
03-Jan-22 14:23 34.152966 -118.447721 350 4217ft 108kts
03-Jan-22 14:24 34.183193 -118.451914 352 4799ft 109kts
03-Jan-22 14:25 34.214381 -118.450657 358 5326ft 111kts
03-Jan-22 14:26 34.245647 -118.451903 347 5812ft 111kts
03-Jan-22 14:27 34.277150 -118.454002 349 6268ft 114kts
03-Jan-22 14:28 34.308912 -118.455962 349 6662ft 115kts
03-Jan-22 14:29 34.340988 -118.457827 349 7080ft 115kts
03-Jan-22 14:30 34.373561 -118.453458 8 7351ft 123kts
03-Jan-22 14:31 34.402453 -118.430214 48 7628ft 134kts
03-Jan-22 14:32 34.424716 -118.394323 49 7889ft 134kts
03-Jan-22 14:33 34.447265 -118.358291 48 8082ft 134kts
03-Jan-22 14:34 34.470020 -118.322046 48 8372ft 131kts
03-Jan-22 14:35 34.492805 -118.285585 48 8776ft 134kts
03-Jan-22 14:36 34.515907 -118.248686 47 9102ft 137kts
03-Jan-22 14:37 34.539446 -118.211104 47 9483ft 138kts
03-Jan-22 14:38 34.562636 -118.173952 48 9659ft 133kts
03-Jan-22 14:39 34.585362 -118.137689 47 10009ft 133kts
03-Jan-22 14:40 34.608156 -118.101111 47 10356ft 135kts
03-Jan-22 14:41 34.630304 -118.063619 67 10608ft 144kts
03-Jan-22 14:42 34.636556 -118.015953 81 10795ft 152kts
03-Jan-22 14:43 34.642451 -117.963217 82 10806ft 160kts
03-Jan-22 14:44 34.648372 -117.909177 82 10802ft 161kts
03-Jan-22 14:45 34.654234 -117.855180 82 10813ft 162kts
03-Jan-22 14:46 34.660108 -117.800791 82 10810ft 163kts
03-Jan-22 14:47 34.668125 -117.746884 68 10801ft 161kts
03-Jan-22 14:48 34.681826 -117.694697 70 10803ft 162kts
03-Jan-22 14:49 34.695247 -117.642445 70 10798ft 161kts
03-Jan-22 14:50 34.708626 -117.590102 70 10818ft 164kts
03-Jan-22 14:51 34.722143 -117.537297 70 10800ft 162kts
03-Jan-22 14:52 34.735404 -117.485183 71 10789ft 160kts
03-Jan-22 14:53 34.748639 -117.433189 71 10793ft 161kts
03-Jan-22 14:54 34.761897 -117.380941 71 10796ft 161kts
03-Jan-22 14:55 34.775192 -117.328549 71 10791ft 161kts
03-Jan-22 14:56 34.788448 -117.276161 71 10798ft 162kts
03-Jan-22 14:57 34.801689 -117.223647 71 10799ft 162kts
03-Jan-22 14:58 34.814974 -117.170838 71 10805ft 164kts
03-Jan-22 14:59 34.828336 -117.117787 71 10803ft 164kts
03-Jan-22 15:00 34.841688 -117.064692 71 10807ft 164kts
03-Jan-22 15:01 34.855012 -117.011426 70 10796ft 163kts
03-Jan-22 15:02 34.868172 -116.958742 71 10792ft 162kts
03-Jan-22 15:03 34.881266 -116.906225 71 10804ft 163kts
03-Jan-22 15:04 34.894138 -116.853169 82 10796ft 162kts
03-Jan-22 15:05 34.889190 -116.799127 101 10799ft 161kts
03-Jan-22 15:06 34.883178 -116.744930 101 10798ft 161kts
03-Jan-22 15:07 34.877124 -116.690981 101 10800ft 160kts
03-Jan-22 15:08 34.890035 -116.646515 14 10795ft 146kts
03-Jan-22 15:09 34.927491 -116.627593 12 10799ft 146kts
03-Jan-22 15:10 34.957613 -116.594734 57 10799ft 158kts
03-Jan-22 15:11 34.976585 -116.545740 56 10798ft 158kts
03-Jan-22 15:12 34.997818 -116.498633 57 10796ft 158kts
03-Jan-22 15:13 35.018776 -116.451549 57 10799ft 158kts
03-Jan-22 15:14 35.039743 -116.404260 57 10806ft 159kts
03-Jan-22 15:15 35.060835 -116.356615 57 10815ft 160kts
03-Jan-22 15:16 35.081922 -116.308207 60 10827ft 161kts
03-Jan-22 15:17 35.101493 -116.260058 60 10799ft 157kts
03-Jan-22 15:18 35.121932 -116.212313 59 10811ft 159kts
03-Jan-22 15:20 35.142564 -116.164734 59 10801ft 157kts
03-Jan-22 15:21 35.163206 -116.117261 59 10803ft 157kts
03-Jan-22 15:22 35.183462 -116.070470 58 10786ft 156kts
03-Jan-22 15:23 35.203861 -116.023472 59 10793ft 157kts
03-Jan-22 15:24 35.224510 -115.975876 59 10799ft 158kts
03-Jan-22 15:25 35.245170 -115.928193 59 10802ft 158kts
03-Jan-22 15:26 35.265898 -115.880383 59 10809ft 159kts
03-Jan-22 15:27 35.286731 -115.832311 59 10813ft 160kts
03-Jan-22 15:28 35.309709 -115.786328 33 10814ft 154kts
03-Jan-22 15:29 35.342677 -115.752893 42 10787ft 154kts
03-Jan-22 15:30 35.370899 -115.713329 44 10673ft 156kts
03-Jan-22 15:31 35.399894 -115.674066 43 10388ft 158kts
03-Jan-22 15:32 35.428879 -115.634926 43 10052ft 154kts
03-Jan-22 15:33 35.457722 -115.595975 44 9802ft 153kts
03-Jan-22 15:34 35.486733 -115.556801 43 9829ft 156kts
03-Jan-22 15:35 35.515380 -115.518033 43 9792ft 151kts
03-Jan-22 15:36 35.543635 -115.479739 44 9795ft 151kts
03-Jan-22 15:37 35.571846 -115.441476 44 9804ft 151kts
03-Jan-22 15:38 35.600285 -115.402907 44 9813ft 153kts
03-Jan-22 15:39 35.627159 -115.366410 43 9803ft 127kts
03-Jan-22 15:40 35.651707 -115.333001 44 9819ft 136kts
03-Jan-22 15:41 35.677182 -115.298419 44 9839ft 135kts
03-Jan-22 15:42 35.709406 -115.274875 21 9539ft 135kts
03-Jan-22 15:43 35.741765 -115.254907 21 9157ft 128kts
03-Jan-22 15:44 35.773509 -115.235795 21 8783ft 126kts
03-Jan-22 15:44 35.799691 -115.220358 21 8500ft 124kts
03-Jan-22 15:45 35.830788 -115.202471 21 8056ft 120kts
03-Jan-22 15:47 35.865395 -115.183234 21 7862ft 118kts
03-Jan-22 15:48 35.896050 -115.166232 21 7871ft 123kts
03-Jan-22 15:49 35.927518 -115.149034 21 7491ft 121kts
03-Jan-22 15:49 35.953322 -115.135381 21 7153ft 120kts
03-Jan-22 15:50 35.983747 -115.119872 21 6616ft 118kts
03-Jan-22 15:51 36.014039 -115.105252 18 6100ft 115kts
03-Jan-22 15:53 36.049413 -115.095342 12 5394ft 103kts
03-Jan-22 15:53 36.072154 -115.089148 17 4570ft 99kts
03-Jan-22 15:54 36.092200 -115.104411 295 3598ft 92kts
03-Jan-22 15:55 36.109950 -115.113859 19 3179ft 79kts
03-Jan-22 15:56 36.131471 -115.104054 6 3201ft 88kts
03-Jan-22 15:57 36.140295 -115.128291 242 3131ft 85kts
03-Jan-22 15:58 36.122242 -115.143106 200 2703ft 75kts
03-Jan-22 15:59 36.103653 -115.154190 203 2301ft 73kts
03-Jan-22 16:00 36.088586 -115.162798 204 2147ft 37kts
03-Jan-22 16:01 36.083773 -115.166677 227 2167ft 0kts
03-Jan-22 16:02 36.081407 -115.169283 214 2175ft 17kts

Navigation Log

Ident Type
Flight plan parsing failed, navigation log unavailable